createdAt,value
2023-02-13T00:00:19.988Z,7.47
2023-02-13T00:02:47.239Z,7.46
2023-02-13T00:05:14.080Z,7.44
2023-02-13T00:07:40.858Z,7.42
2023-02-13T00:10:08.902Z,7.41
2023-02-13T00:12:35.752Z,7.37
2023-02-13T00:15:03.397Z,7.33
2023-02-13T00:17:30.146Z,7.27
2023-02-13T00:19:56.985Z,7.24
2023-02-13T00:22:24.452Z,7.22
2023-02-13T00:24:51.084Z,7.20
2023-02-13T00:27:17.688Z,7.20
2023-02-13T00:29:44.510Z,7.18
2023-02-13T00:32:11.911Z,7.15
2023-02-13T00:34:38.794Z,7.12
2023-02-13T00:37:05.340Z,7.07
2023-02-13T00:39:32.003Z,7.02
2023-02-13T00:41:58.682Z,6.98
2023-02-13T00:44:25.342Z,6.95
2023-02-13T00:46:51.916Z,6.95
2023-02-13T00:49:18.661Z,6.93
2023-02-13T00:51:45.320Z,6.94
2023-02-13T00:54:11.969Z,6.93
2023-02-13T00:56:38.705Z,6.89
2023-02-13T00:59:06.131Z,6.89
2023-02-13T01:01:32.858Z,6.88
2023-02-13T01:03:59.996Z,6.90
2023-02-13T01:06:28.189Z,6.91
2023-02-13T01:08:54.844Z,6.91
2023-02-13T01:11:21.472Z,6.91
2023-02-13T01:13:48.164Z,6.88
2023-02-13T01:16:16.245Z,6.87
2023-02-13T01:18:42.984Z,6.86
2023-02-13T01:21:15.620Z,6.85
2023-02-13T01:23:42.384Z,6.82
2023-02-13T01:26:16.550Z,6.80
2023-02-13T01:28:43.184Z,6.79
2023-02-13T01:31:11.544Z,6.79
2023-02-13T01:33:38.397Z,6.80
2023-02-13T01:36:14.247Z,6.80
2023-02-13T01:38:41.793Z,6.80
2023-02-13T01:41:09.440Z,6.76
2023-02-13T01:43:48.890Z,6.74
2023-02-13T01:46:21.151Z,6.73
2023-02-13T01:48:49.761Z,6.70
2023-02-13T01:51:22.133Z,6.71
2023-02-13T01:53:56.089Z,6.69
2023-02-13T01:56:54.210Z,6.67
2023-02-13T01:59:36.666Z,6.67
2023-02-13T02:02:03.797Z,6.68
2023-02-13T02:04:36.946Z,6.69
2023-02-13T02:07:13.991Z,6.66
2023-02-13T02:09:42.261Z,6.65
2023-02-13T02:12:30.928Z,6.63
2023-02-13T02:15:00.451Z,6.61
2023-02-13T02:17:30.324Z,6.59
2023-02-13T02:20:21.106Z,6.59
2023-02-13T02:23:25.082Z,6.62
2023-02-13T02:26:16.212Z,6.64
2023-02-13T02:29:12.158Z,6.64
2023-02-13T02:32:05.101Z,6.65
2023-02-13T02:34:50.667Z,6.65
2023-02-13T02:37:26.672Z,6.64
2023-02-13T02:40:23.652Z,6.63
2023-02-13T02:43:05.608Z,6.62
2023-02-13T02:45:36.225Z,6.58
2023-02-13T02:48:30.888Z,6.55
2023-02-13T02:51:00.617Z,6.56
2023-02-13T02:53:52.956Z,6.53
2023-02-13T02:56:41.012Z,6.53
2023-02-13T02:59:32.456Z,6.53
2023-02-13T03:02:21.092Z,6.52
2023-02-13T03:05:11.980Z,6.52
2023-02-13T03:07:38.712Z,6.53
2023-02-13T03:10:28.524Z,6.53
2023-02-13T03:13:20.186Z,6.55
2023-02-13T03:16:08.479Z,6.53
2023-02-13T03:18:59.820Z,6.53
2023-02-13T03:22:18.814Z,6.53
2023-02-13T03:24:51.354Z,6.54
2023-02-13T03:27:52.281Z,6.56
2023-02-13T03:30:48.325Z,6.58
2023-02-13T03:33:39.243Z,6.59
2023-02-13T03:36:37.645Z,6.58
2023-02-13T03:39:34.058Z,6.55
2023-02-13T03:42:11.789Z,6.52
2023-02-13T03:45:09.906Z,6.50
2023-02-13T03:47:37.683Z,6.51
2023-02-13T03:50:07.973Z,6.50
2023-02-13T03:53:02.287Z,6.49
2023-02-13T03:55:55.649Z,6.49
2023-02-13T03:58:58.242Z,6.49
2023-02-13T04:01:29.253Z,6.50
2023-02-13T04:04:08.025Z,6.52
2023-02-13T04:06:46.801Z,6.49
2023-02-13T04:09:13.735Z,6.48
2023-02-13T04:11:58.864Z,6.47
2023-02-13T04:14:34.385Z,6.44
2023-02-13T04:17:24.086Z,6.45
2023-02-13T04:19:51.745Z,6.43
2023-02-13T04:22:19.048Z,6.43
2023-02-13T04:24:46.364Z,6.42
2023-02-13T04:27:16.519Z,6.40
2023-02-13T04:29:44.050Z,6.36
2023-02-13T04:32:11.799Z,6.32
2023-02-13T04:34:38.744Z,6.28
2023-02-13T04:37:05.580Z,6.24
2023-02-13T04:39:33.744Z,6.20
2023-02-13T04:42:00.427Z,6.18
2023-02-13T04:44:27.085Z,6.16
2023-02-13T04:46:53.758Z,6.14
2023-02-13T04:49:20.319Z,6.12
2023-02-13T04:51:46.982Z,6.09
2023-02-13T04:54:13.739Z,6.07
2023-02-13T04:56:40.472Z,6.06
2023-02-13T04:59:07.046Z,6.06
2023-02-13T05:01:34.609Z,6.06
2023-02-13T05:04:01.368Z,6.06
2023-02-13T05:06:27.896Z,6.05
2023-02-13T05:08:54.605Z,6.05
2023-02-13T05:11:21.290Z,6.06
2023-02-13T05:13:48.060Z,6.07
2023-02-13T05:16:14.715Z,6.11
2023-02-13T05:18:41.425Z,6.14
2023-02-13T05:21:26.817Z,6.13
2023-02-13T05:23:53.590Z,6.14
2023-02-13T05:26:20.333Z,6.13
2023-02-13T05:29:05.880Z,6.13
2023-02-13T05:31:32.713Z,6.14
2023-02-13T05:33:59.496Z,6.17
2023-02-13T05:36:26.230Z,6.19
2023-02-13T05:38:52.833Z,6.15
2023-02-13T05:41:19.541Z,6.07
2023-02-13T05:43:46.212Z,5.98
2023-02-13T05:46:13.075Z,5.94
2023-02-13T05:48:39.827Z,5.91
2023-02-13T05:51:06.725Z,5.87
2023-02-13T05:53:37.078Z,5.87
2023-02-13T05:56:05.546Z,5.88
2023-02-13T05:58:33.878Z,5.85
2023-02-13T06:01:01.436Z,5.85
2023-02-13T06:03:30.190Z,5.84
2023-02-13T06:05:57.506Z,5.81
2023-02-13T06:08:26.232Z,5.76
2023-02-13T06:10:52.950Z,5.70
2023-02-13T06:13:20.063Z,5.67
2023-02-13T06:15:46.924Z,5.61
2023-02-13T06:18:13.809Z,5.56
2023-02-13T06:20:40.538Z,5.52
2023-02-13T06:23:07.315Z,5.46
2023-02-13T06:25:37.509Z,5.41
2023-02-13T06:28:05.547Z,5.35
2023-02-13T06:30:33.650Z,5.33
2023-02-13T06:33:00.571Z,5.30
2023-02-13T06:35:27.778Z,5.30
2023-02-13T06:37:55.456Z,5.29
2023-02-13T06:40:22.237Z,5.28
2023-02-13T06:42:48.795Z,5.27
2023-02-13T06:45:15.578Z,5.26
2023-02-13T06:47:43.113Z,5.25
2023-02-13T06:50:11.043Z,5.25
2023-02-13T06:52:37.785Z,5.28
2023-02-13T06:55:05.704Z,5.31
2023-02-13T06:57:33.394Z,5.35
2023-02-13T07:00:01.093Z,5.38
2023-02-13T07:02:27.910Z,5.40
2023-02-13T07:04:54.588Z,5.43
2023-02-13T07:07:21.860Z,5.48
2023-02-13T07:09:48.581Z,5.53
2023-02-13T07:12:15.112Z,5.57
2023-02-13T07:14:41.858Z,5.60
2023-02-13T07:17:08.675Z,5.63
2023-02-13T07:19:35.470Z,5.67
2023-02-13T07:22:02.058Z,5.70
2023-02-13T07:24:28.786Z,5.77
2023-02-13T07:26:55.787Z,5.86
2023-02-13T07:29:22.480Z,5.91
2023-02-13T07:31:49.132Z,5.97
2023-02-13T07:34:16.110Z,6.02
2023-02-13T07:36:42.852Z,6.08
2023-02-13T07:39:09.493Z,6.13
2023-02-13T07:41:36.191Z,6.15
2023-02-13T07:44:02.906Z,6.17
2023-02-13T07:46:29.691Z,6.21
2023-02-13T07:48:56.502Z,6.25
2023-02-13T07:51:25.498Z,6.29
2023-02-13T07:53:52.896Z,6.37
2023-02-13T07:56:19.700Z,6.44
2023-02-13T07:58:46.457Z,6.53
2023-02-13T08:01:14.138Z,6.60
2023-02-13T08:03:41.583Z,6.67
2023-02-13T08:06:09.521Z,6.76
2023-02-13T08:08:38.001Z,6.85
2023-02-13T08:11:47.300Z,6.93
2023-02-13T08:14:13.969Z,7.04
2023-02-13T08:16:40.670Z,7.13
2023-02-13T08:19:07.418Z,7.23
2023-02-13T08:21:35.417Z,7.34
2023-02-13T08:24:02.053Z,7.45
2023-02-13T08:26:31.800Z,7.54
2023-02-13T08:28:59.366Z,7.63
2023-02-13T08:31:26.808Z,7.73
2023-02-13T08:33:53.648Z,7.83
2023-02-13T08:36:21.680Z,7.93
2023-02-13T08:38:48.444Z,8.00
2023-02-13T08:43:50.201Z,8.16
2023-02-13T08:46:18.322Z,8.25
2023-02-13T08:48:45.218Z,8.35
2023-02-13T08:51:14.177Z,8.42
2023-02-13T08:53:42.517Z,8.49
2023-02-13T08:56:10.202Z,8.57
2023-02-13T08:58:36.967Z,8.69
2023-02-13T09:01:08.102Z,8.80
2023-02-13T09:03:35.428Z,8.91
2023-02-13T09:06:03.455Z,9.02
2023-02-13T09:08:30.669Z,9.12
2023-02-13T09:11:00.707Z,9.21
2023-02-13T09:13:33.680Z,9.32
2023-02-13T09:16:02.323Z,9.40
2023-02-13T09:18:29.133Z,9.50
2023-02-13T09:21:05.342Z,9.61
2023-02-13T09:23:37.069Z,9.72
2023-02-13T09:26:05.923Z,9.82
2023-02-13T09:28:36.248Z,9.94
2023-02-13T09:31:10.640Z,10.04
2023-02-13T09:33:38.002Z,10.13
2023-02-13T09:36:14.763Z,10.20
2023-02-13T09:38:45.596Z,10.27
2023-02-13T09:41:25.200Z,10.36
2023-02-13T09:44:03.027Z,10.45
2023-02-13T09:46:34.374Z,10.54
2023-02-13T09:49:15.998Z,10.63
2023-02-13T09:51:50.503Z,10.74
2023-02-13T09:54:20.672Z,10.83
2023-02-13T09:57:00.680Z,10.94
2023-02-13T09:59:47.997Z,11.07
2023-02-13T10:02:32.016Z,11.16
2023-02-13T10:05:25.454Z,11.24
2023-02-13T10:08:30.243Z,11.32
2023-02-13T10:11:11.967Z,11.39
2023-02-13T10:14:01.752Z,11.46
2023-02-13T10:16:40.811Z,11.51
2023-02-13T10:19:21.877Z,11.58
2023-02-13T10:22:07.444Z,11.60
2023-02-13T10:24:43.587Z,11.64
2023-02-13T10:27:20.038Z,11.70
2023-02-13T10:30:06.314Z,11.77
2023-02-13T10:32:48.142Z,11.84
2023-02-13T10:35:20.605Z,11.92
2023-02-13T10:37:51.858Z,12.01
2023-02-13T10:40:19.200Z,12.06
2023-02-13T10:42:53.169Z,12.11
2023-02-13T10:45:33.128Z,12.16
2023-02-13T10:48:29.293Z,12.21
2023-02-13T10:51:14.549Z,12.30
2023-02-13T10:53:55.787Z,12.36
2023-02-13T10:56:35.576Z,12.42
2023-02-13T10:59:34.725Z,12.48
2023-02-13T11:02:16.029Z,12.53
2023-02-13T11:04:44.645Z,12.55
2023-02-13T11:07:17.676Z,12.59
2023-02-13T11:09:49.578Z,12.65
2023-02-13T11:12:27.880Z,12.70
2023-02-13T11:14:57.485Z,12.76
2023-02-13T11:17:25.589Z,12.80
2023-02-13T11:19:57.397Z,12.83
2023-02-13T11:22:36.383Z,12.87
2023-02-13T11:25:25.452Z,12.89
2023-02-13T11:28:07.480Z,12.93
2023-02-13T11:30:36.560Z,12.95
2023-02-13T11:33:27.277Z,12.96
2023-02-13T11:36:09.326Z,13.00
2023-02-13T11:38:36.799Z,13.02
2023-02-13T11:41:07.694Z,13.04
2023-02-13T11:43:54.966Z,13.04
2023-02-13T11:46:26.882Z,13.06
2023-02-13T11:49:01.573Z,13.09
2023-02-13T11:51:46.664Z,13.10
2023-02-13T11:54:43.304Z,13.14
2023-02-13T11:57:15.857Z,13.15
2023-02-13T11:59:45.054Z,13.17
2023-02-13T12:02:19.757Z,13.20
2023-02-13T12:04:49.455Z,13.21
2023-02-13T12:07:27.235Z,13.24
2023-02-13T12:10:19.103Z,13.27
2023-02-13T12:12:58.262Z,13.31
2023-02-13T12:15:31.965Z,13.35
2023-02-13T12:18:20.224Z,13.38
2023-02-13T12:21:01.975Z,13.39
2023-02-13T12:24:17.782Z,13.39
2023-02-13T12:27:10.635Z,13.41
2023-02-13T12:30:13.721Z,13.44
2023-02-13T12:33:03.284Z,13.49
2023-02-13T12:35:39.641Z,13.52
2023-02-13T12:38:29.272Z,13.54
2023-02-13T12:41:18.917Z,13.54
2023-02-13T12:44:24.796Z,13.55
2023-02-13T12:47:13.256Z,13.55
2023-02-13T12:49:59.302Z,13.59
2023-02-13T12:53:05.066Z,13.60
2023-02-13T12:55:43.889Z,13.61
2023-02-13T12:58:41.024Z,13.63
2023-02-13T13:01:44.726Z,13.66
2023-02-13T13:04:42.033Z,13.66
2023-02-13T13:07:24.177Z,13.65
2023-02-13T13:10:28.289Z,13.64
2023-02-13T13:13:02.955Z,13.64
2023-02-13T13:15:40.623Z,13.64
2023-02-13T13:18:19.071Z,13.66
2023-02-13T13:21:15.154Z,13.67
2023-02-13T13:23:57.494Z,13.70
2023-02-13T13:26:41.548Z,13.72
2023-02-13T13:29:44.354Z,13.74
2023-02-13T13:32:14.326Z,13.77
2023-02-13T13:34:41.173Z,13.78
2023-02-13T13:37:28.576Z,13.78
2023-02-13T13:40:21.552Z,13.79
2023-02-13T13:42:56.725Z,13.82
2023-02-13T13:45:35.689Z,13.84
2023-02-13T13:48:14.579Z,13.83
2023-02-13T13:50:43.680Z,13.83
2023-02-13T13:53:15.833Z,13.83
2023-02-13T13:55:52.777Z,13.85
2023-02-13T13:58:31.200Z,13.86
2023-02-13T14:01:32.274Z,13.87
2023-02-13T14:04:03.935Z,13.87
2023-02-13T14:06:39.859Z,13.88
2023-02-13T14:09:07.455Z,13.88
2023-02-13T14:11:40.165Z,13.86
2023-02-13T14:14:28.627Z,13.85
2023-02-13T14:16:57.980Z,13.85
2023-02-13T14:19:40.977Z,13.84
2023-02-13T14:22:19.912Z,13.88
2023-02-13T14:24:54.685Z,13.89
2023-02-13T14:27:24.791Z,13.90
2023-02-13T14:29:51.673Z,13.90
2023-02-13T14:32:37.928Z,13.89
2023-02-13T14:35:20.797Z,13.91
2023-02-13T14:37:51.922Z,13.88
2023-02-13T14:40:18.518Z,13.85
2023-02-13T14:42:51.928Z,13.83
2023-02-13T14:45:27.393Z,13.82
2023-02-13T14:47:57.486Z,13.80
2023-02-13T14:50:28.829Z,13.79
2023-02-13T14:52:59.396Z,13.75
2023-02-13T14:55:42.445Z,13.72
2023-02-13T14:58:13.549Z,13.70
2023-02-13T15:00:40.296Z,13.67
2023-02-13T15:03:38.722Z,13.65
2023-02-13T15:06:27.805Z,13.65
2023-02-13T15:08:59.074Z,13.63
2023-02-13T15:11:43.043Z,13.59
2023-02-13T15:14:28.273Z,13.56
2023-02-13T15:16:57.165Z,13.52
2023-02-13T15:19:25.048Z,13.48
2023-02-13T15:22:00.538Z,13.44
2023-02-13T15:24:33.086Z,13.39
2023-02-13T15:27:03.281Z,13.34
2023-02-13T15:29:40.969Z,13.30
2023-02-13T15:32:19.495Z,13.27
2023-02-13T15:34:48.987Z,13.22
2023-02-13T15:37:24.218Z,13.18
2023-02-13T15:39:51.060Z,13.15
2023-02-13T15:42:17.765Z,13.13
2023-02-13T15:44:48.066Z,13.10
2023-02-13T15:47:22.609Z,13.08
2023-02-13T15:49:50.725Z,13.04
2023-02-13T15:52:34.869Z,13.00
2023-02-13T15:55:01.743Z,12.95
2023-02-13T15:57:29.617Z,12.91
2023-02-13T15:59:58.818Z,12.85
2023-02-13T16:02:43.165Z,12.81
2023-02-13T16:05:12.809Z,12.76
2023-02-13T16:07:52.451Z,12.69
2023-02-13T16:10:31.612Z,12.63
2023-02-13T16:13:01.873Z,12.54
2023-02-13T16:15:32.007Z,12.47
2023-02-13T16:17:59.417Z,12.40
2023-02-13T16:20:28.829Z,12.34
2023-02-13T16:23:03.638Z,12.27
2023-02-13T16:25:38.683Z,12.20
2023-02-13T16:28:17.541Z,12.14
2023-02-13T16:30:54.874Z,12.08
2023-02-13T16:33:27.173Z,12.02
2023-02-13T16:35:57.129Z,11.95
2023-02-13T16:38:26.293Z,11.90
2023-02-13T16:44:03.712Z,11.78
2023-02-13T16:46:41.236Z,11.71
2023-02-13T16:49:10.651Z,11.65
2023-02-13T16:51:52.790Z,11.58
2023-02-13T16:54:54.991Z,11.49
2023-02-13T16:57:33.241Z,11.40
2023-02-13T17:00:01.805Z,11.30
2023-02-13T17:02:30.337Z,11.21
2023-02-13T17:05:09.470Z,11.12
2023-02-13T17:07:38.644Z,11.01
2023-02-13T17:10:18.891Z,10.90
2023-02-13T17:12:46.656Z,10.77
2023-02-13T17:15:15.871Z,10.65
2023-02-13T17:17:42.630Z,10.51
2023-02-13T17:20:17.524Z,10.37
2023-02-13T17:22:47.605Z,10.23
2023-02-13T17:25:31.763Z,10.11
2023-02-13T17:28:00.743Z,9.97
2023-02-13T17:30:30.867Z,9.87
2023-02-13T17:33:02.592Z,9.78
2023-02-13T17:35:29.611Z,9.68
2023-02-13T17:37:56.284Z,9.59
2023-02-13T17:40:25.496Z,9.54
2023-02-13T17:42:55.108Z,9.49
2023-02-13T17:45:24.955Z,9.44
2023-02-13T17:47:51.831Z,9.38
2023-02-13T17:50:19.053Z,9.33
2023-02-13T17:52:48.934Z,9.29
2023-02-13T17:55:22.153Z,9.24
2023-02-13T17:57:50.165Z,9.19
2023-02-13T18:00:18.399Z,9.14
2023-02-13T18:02:45.275Z,9.11
2023-02-13T18:05:12.020Z,9.07
2023-02-13T18:07:40.936Z,9.04
2023-02-13T18:10:10.522Z,9.03
2023-02-13T18:12:39.448Z,9.02
2023-02-13T18:15:07.327Z,9.00
2023-02-13T18:17:34.180Z,8.99
2023-02-13T18:20:01.082Z,8.97
2023-02-13T18:22:29.496Z,8.94
2023-02-13T18:24:56.149Z,8.92
2023-02-13T18:27:23.784Z,8.88
2023-02-13T18:29:50.532Z,8.84
2023-02-13T18:32:17.366Z,8.79
2023-02-13T18:34:46.692Z,8.74
2023-02-13T18:37:14.038Z,8.71
2023-02-13T18:39:40.771Z,8.67
2023-02-13T18:42:07.670Z,8.63
2023-02-13T18:44:34.688Z,8.59
2023-02-13T18:47:01.681Z,8.56
2023-02-13T18:49:28.383Z,8.53
2023-02-13T18:51:55.095Z,8.51
2023-02-13T18:54:21.765Z,8.47
2023-02-13T18:56:48.813Z,8.44
2023-02-13T18:59:15.963Z,8.42
2023-02-13T19:01:42.670Z,8.39
2023-02-13T19:04:10.932Z,8.37
2023-02-13T19:06:40.744Z,8.34
2023-02-13T19:09:07.745Z,8.29
2023-02-13T19:11:35.839Z,8.23
2023-02-13T19:14:02.612Z,8.16
2023-02-13T19:16:32.575Z,8.13
2023-02-13T19:19:01.509Z,8.12
2023-02-13T19:21:30.777Z,8.11
2023-02-13T19:23:57.882Z,8.07
2023-02-13T19:26:26.592Z,8.04
2023-02-13T19:28:53.493Z,7.99
2023-02-13T19:31:23.028Z,8.00
2023-02-13T19:33:51.066Z,7.98
2023-02-13T19:36:24.373Z,7.97
2023-02-13T19:38:59.757Z,7.95
2023-02-13T19:41:27.190Z,7.91
2023-02-13T19:43:53.905Z,7.88
2023-02-13T19:46:23.824Z,7.85
2023-02-13T19:48:51.999Z,7.83
2023-02-13T19:51:22.168Z,7.83
2023-02-13T19:53:49.057Z,7.84
2023-02-13T19:56:15.875Z,7.81
2023-02-13T19:58:43.323Z,7.78
2023-02-13T20:01:16.638Z,7.79
2023-02-13T20:03:44.532Z,7.78
2023-02-13T20:06:16.401Z,7.79
2023-02-13T20:08:44.569Z,7.78
2023-02-13T20:11:14.525Z,7.78
2023-02-13T20:13:42.921Z,7.77
2023-02-13T20:16:13.282Z,7.74
2023-02-13T20:18:41.218Z,7.73
2023-02-13T20:21:19.021Z,7.71
2023-02-13T20:23:51.954Z,7.71
2023-02-13T20:26:19.812Z,7.70
2023-02-13T20:28:48.449Z,7.67
2023-02-13T20:31:17.693Z,7.63
2023-02-13T20:33:45.051Z,7.60
2023-02-13T20:36:21.238Z,7.58
2023-02-13T20:38:50.443Z,7.57
2023-02-13T20:41:21.376Z,7.53
2023-02-13T20:43:48.527Z,7.49
2023-02-13T20:46:17.348Z,7.46
2023-02-13T20:48:51.995Z,7.41
2023-02-13T20:51:19.179Z,7.36
2023-02-13T20:53:47.106Z,7.36
2023-02-13T20:56:18.365Z,7.36
2023-02-13T20:58:48.093Z,7.37
2023-02-13T21:01:20.713Z,7.34
2023-02-13T21:03:53.514Z,7.30
2023-02-13T21:06:26.089Z,7.27
2023-02-13T21:08:53.153Z,7.28
2023-02-13T21:11:20.600Z,7.30
2023-02-13T21:13:48.334Z,7.29
2023-02-13T21:16:24.387Z,7.26
2023-02-13T21:18:55.141Z,7.25
2023-02-13T21:21:23.959Z,7.24
2023-02-13T21:23:55.202Z,7.24
2023-02-13T21:26:22.872Z,7.24
2023-02-13T21:28:50.843Z,7.21
2023-02-13T21:31:21.100Z,7.17
2023-02-13T21:33:47.873Z,7.16
2023-02-13T21:36:14.788Z,7.14
2023-02-13T21:38:42.456Z,7.13
2023-02-13T21:41:19.588Z,7.12
2023-02-13T21:43:49.250Z,7.10
2023-02-13T21:46:23.165Z,7.07
2023-02-13T21:48:54.752Z,7.06
2023-02-13T21:51:22.735Z,7.06
2023-02-13T21:53:50.465Z,7.05
2023-02-13T21:56:29.946Z,7.05
2023-02-13T21:58:58.073Z,7.05
2023-02-13T22:01:31.714Z,7.05
2023-02-13T22:04:04.401Z,7.07
2023-02-13T22:06:33.631Z,7.07
2023-02-13T22:09:07.651Z,7.07
2023-02-13T22:11:36.953Z,7.05
2023-02-13T22:14:05.450Z,7.04
2023-02-13T22:16:35.285Z,7.02
2023-02-13T22:19:02.922Z,6.99
2023-02-13T22:21:31.318Z,6.95
2023-02-13T22:23:58.838Z,6.94
2023-02-13T22:26:31.249Z,6.95
2023-02-13T22:29:04.301Z,6.96
2023-02-13T22:31:32.334Z,6.96
2023-02-13T22:34:04.045Z,6.96
2023-02-13T22:36:39.072Z,6.96
2023-02-13T22:39:07.351Z,6.94
2023-02-13T22:41:34.707Z,6.93
2023-02-13T22:44:01.425Z,6.90
2023-02-13T22:46:30.505Z,6.88
2023-02-13T22:48:58.441Z,6.86
2023-02-13T22:51:31.764Z,6.86
2023-02-13T22:53:59.072Z,6.86
2023-02-13T22:56:27.922Z,6.85
2023-02-13T22:58:55.320Z,6.82
2023-02-13T23:01:24.509Z,6.79
2023-02-13T23:03:51.335Z,6.74
2023-02-13T23:06:19.358Z,6.72
2023-02-13T23:08:49.069Z,6.69
2023-02-13T23:11:36.319Z,6.66
2023-02-13T23:14:04.427Z,6.64
2023-02-13T23:16:51.847Z,6.61
2023-02-13T23:19:18.991Z,6.60
2023-02-13T23:21:45.733Z,6.61
2023-02-13T23:24:12.383Z,6.60
2023-02-13T23:26:38.961Z,6.57
2023-02-13T23:29:05.721Z,6.53
2023-02-13T23:31:32.450Z,6.52
2023-02-13T23:33:59.163Z,6.50
2023-02-13T23:36:25.910Z,6.47
2023-02-13T23:38:52.466Z,6.45
2023-02-13T23:41:19.185Z,6.42
2023-02-13T23:43:45.776Z,6.40
2023-02-13T23:46:12.518Z,6.38
2023-02-13T23:48:39.157Z,6.36
2023-02-13T23:51:06.020Z,6.33
2023-02-13T23:53:36.199Z,6.31
2023-02-13T23:56:04.002Z,6.28
2023-02-13T23:58:30.886Z,6.25
